sensor_id;sensor_type;location;lat;lon;timestamp;P1;durP1;ratioP1;P2;durP2;ratioP2
12842;SDS011;35724;49.324;-123.118;2023-09-18T00:08:18;6.18;;;2.20;;
12842;SDS011;35724;49.324;-123.118;2023-09-18T00:18:28;3.80;;;1.95;;
12842;SDS011;35724;49.324;-123.118;2023-09-18T00:28:36;5.88;;;2.17;;
12842;SDS011;35724;49.324;-123.118;2023-09-18T00:38:44;3.83;;;2.30;;
12842;SDS011;35724;49.324;-123.118;2023-09-18T00:48:54;4.07;;;2.10;;
12842;SDS011;35724;49.324;-123.118;2023-09-18T00:59:02;3.50;;;2.10;;
12842;SDS011;35724;49.324;-123.118;2023-09-18T01:09:11;3.40;;;1.90;;
12842;SDS011;35724;49.324;-123.118;2023-09-18T01:19:36;3.78;;;2.15;;
12842;SDS011;35724;49.324;-123.118;2023-09-18T01:29:46;4.10;;;2.25;;
12842;SDS011;35724;49.324;-123.118;2023-09-18T01:39:54;3.20;;;2.00;;
12842;SDS011;35724;49.324;-123.118;2023-09-18T01:50:05;4.20;;;2.20;;
12842;SDS011;35724;49.324;-123.118;2023-09-18T02:00:14;3.58;;;2.35;;
12842;SDS011;35724;49.324;-123.118;2023-09-18T02:10:25;4.90;;;2.65;;
12842;SDS011;35724;49.324;-123.118;2023-09-18T02:20:39;4.85;;;2.78;;
12842;SDS011;35724;49.324;-123.118;2023-09-18T02:30:49;4.82;;;3.17;;
12842;SDS011;35724;49.324;-123.118;2023-09-18T02:40:59;4.88;;;3.03;;
12842;SDS011;35724;49.324;-123.118;2023-09-18T02:51:09;4.78;;;3.35;;
12842;SDS011;35724;49.324;-123.118;2023-09-18T03:01:19;11.85;;;6.18;;
12842;SDS011;35724;49.324;-123.118;2023-09-18T03:11:30;10.77;;;8.32;;
12842;SDS011;35724;49.324;-123.118;2023-09-18T03:21:37;19.80;;;11.82;;
12842;SDS011;35724;49.324;-123.118;2023-09-18T03:31:46;16.10;;;12.45;;
12842;SDS011;35724;49.324;-123.118;2023-09-18T03:41:55;15.95;;;12.52;;
12842;SDS011;35724;49.324;-123.118;2023-09-18T03:52:04;16.23;;;13.82;;
12842;SDS011;35724;49.324;-123.118;2023-09-18T04:02:11;28.17;;;25.13;;
12842;SDS011;35724;49.324;-123.118;2023-09-18T04:12:21;40.13;;;35.83;;
12842;SDS011;35724;49.324;-123.118;2023-09-18T04:22:28;43.65;;;36.35;;
12842;SDS011;35724;49.324;-123.118;2023-09-18T04:32:38;36.63;;;32.63;;
12842;SDS011;35724;49.324;-123.118;2023-09-18T04:42:46;30.67;;;27.20;;
12842;SDS011;35724;49.324;-123.118;2023-09-18T04:52:55;27.55;;;24.52;;
12842;SDS011;35724;49.324;-123.118;2023-09-18T05:03:03;25.05;;;21.98;;
12842;SDS011;35724;49.324;-123.118;2023-09-18T05:13:14;24.75;;;19.35;;
12842;SDS011;35724;49.324;-123.118;2023-09-18T05:23:21;18.17;;;15.88;;
12842;SDS011;35724;49.324;-123.118;2023-09-18T05:33:30;15.40;;;13.75;;
12842;SDS011;35724;49.324;-123.118;2023-09-18T05:43:37;12.77;;;11.48;;
12842;SDS011;35724;49.324;-123.118;2023-09-18T05:53:46;10.18;;;9.00;;
12842;SDS011;35724;49.324;-123.118;2023-09-18T06:03:53;11.35;;;8.90;;
12842;SDS011;35724;49.324;-123.118;2023-09-18T06:14:03;10.68;;;9.35;;
12842;SDS011;35724;49.324;-123.118;2023-09-18T06:24:10;12.80;;;10.30;;
12842;SDS011;35724;49.324;-123.118;2023-09-18T06:34:19;11.60;;;8.52;;
12842;SDS011;35724;49.324;-123.118;2023-09-18T06:44:26;11.38;;;7.25;;
12842;SDS011;35724;49.324;-123.118;2023-09-18T06:54:35;8.43;;;6.20;;
12842;SDS011;35724;49.324;-123.118;2023-09-18T07:04:42;7.85;;;4.88;;
12842;SDS011;35724;49.324;-123.118;2023-09-18T07:14:52;6.03;;;4.68;;
12842;SDS011;35724;49.324;-123.118;2023-09-18T07:24:59;5.22;;;4.05;;
12842;SDS011;35724;49.324;-123.118;2023-09-18T07:35:08;4.05;;;3.13;;
12842;SDS011;35724;49.324;-123.118;2023-09-18T07:45:17;4.68;;;3.58;;
12842;SDS011;35724;49.324;-123.118;2023-09-18T07:55:26;5.53;;;3.45;;
12842;SDS011;35724;49.324;-123.118;2023-09-18T08:05:34;4.32;;;2.58;;
12842;SDS011;35724;49.324;-123.118;2023-09-18T08:15:44;3.63;;;2.80;;
12842;SDS011;35724;49.324;-123.118;2023-09-18T08:25:52;3.78;;;2.80;;
12842;SDS011;35724;49.324;-123.118;2023-09-18T08:36:03;3.03;;;2.30;;
12842;SDS011;35724;49.324;-123.118;2023-09-18T08:46:10;3.17;;;2.13;;
12842;SDS011;35724;49.324;-123.118;2023-09-18T08:56:21;2.60;;;2.05;;
12842;SDS011;35724;49.324;-123.118;2023-09-18T09:06:28;3.88;;;2.00;;
12842;SDS011;35724;49.324;-123.118;2023-09-18T09:16:37;2.20;;;2.00;;
12842;SDS011;35724;49.324;-123.118;2023-09-18T09:26:56;1.98;;;1.70;;
12842;SDS011;35724;49.324;-123.118;2023-09-18T09:37:05;2.72;;;1.65;;
12842;SDS011;35724;49.324;-123.118;2023-09-18T09:47:13;2.17;;;1.63;;
12842;SDS011;35724;49.324;-123.118;2023-09-18T09:57:22;2.88;;;1.83;;
12842;SDS011;35724;49.324;-123.118;2023-09-18T10:07:29;3.72;;;1.67;;
12842;SDS011;35724;49.324;-123.118;2023-09-18T10:17:38;3.47;;;1.67;;
12842;SDS011;35724;49.324;-123.118;2023-09-18T10:27:51;1.90;;;1.70;;
12842;SDS011;35724;49.324;-123.118;2023-09-18T10:38:03;1.80;;;1.65;;
12842;SDS011;35724;49.324;-123.118;2023-09-18T10:48:12;2.33;;;1.70;;
12842;SDS011;35724;49.324;-123.118;2023-09-18T10:58:25;2.67;;;1.85;;
12842;SDS011;35724;49.324;-123.118;2023-09-18T11:08:32;2.25;;;1.80;;
12842;SDS011;35724;49.324;-123.118;2023-09-18T11:18:43;2.20;;;1.55;;
12842;SDS011;35724;49.324;-123.118;2023-09-18T11:28:56;2.25;;;1.70;;
12842;SDS011;35724;49.324;-123.118;2023-09-18T11:39:07;2.95;;;1.80;;
12842;SDS011;35724;49.324;-123.118;2023-09-18T11:49:15;3.08;;;2.10;;
12842;SDS011;35724;49.324;-123.118;2023-09-18T11:59:40;4.22;;;1.80;;
12842;SDS011;35724;49.324;-123.118;2023-09-18T12:09:50;3.47;;;1.85;;
12842;SDS011;35724;49.324;-123.118;2023-09-18T12:20:00;2.60;;;1.70;;
12842;SDS011;35724;49.324;-123.118;2023-09-18T12:30:09;4.18;;;1.80;;
12842;SDS011;35724;49.324;-123.118;2023-09-18T12:40:24;2.20;;;1.80;;
12842;SDS011;35724;49.324;-123.118;2023-09-18T12:50:32;1.95;;;1.63;;
12842;SDS011;35724;49.324;-123.118;2023-09-18T13:00:46;2.22;;;1.73;;
12842;SDS011;35724;49.324;-123.118;2023-09-18T13:10:54;1.70;;;1.50;;
12842;SDS011;35724;49.324;-123.118;2023-09-18T13:21:10;2.70;;;1.88;;
12842;SDS011;35724;49.324;-123.118;2023-09-18T13:31:18;3.58;;;1.90;;
12842;SDS011;35724;49.324;-123.118;2023-09-18T13:41:26;4.20;;;2.00;;
12842;SDS011;35724;49.324;-123.118;2023-09-18T13:51:35;4.00;;;2.00;;
12842;SDS011;35724;49.324;-123.118;2023-09-18T14:01:44;3.10;;;2.00;;
12842;SDS011;35724;49.324;-123.118;2023-09-18T14:11:51;8.30;;;2.05;;
12842;SDS011;35724;49.324;-123.118;2023-09-18T14:22:00;4.10;;;1.90;;
12842;SDS011;35724;49.324;-123.118;2023-09-18T14:32:07;2.85;;;1.95;;
12842;SDS011;35724;49.324;-123.118;2023-09-18T14:42:17;11.38;;;2.10;;
12842;SDS011;35724;49.324;-123.118;2023-09-18T14:52:23;7.47;;;2.25;;
12842;SDS011;35724;49.324;-123.118;2023-09-18T15:02:32;5.18;;;2.13;;
12842;SDS011;35724;49.324;-123.118;2023-09-18T15:12:39;4.88;;;2.05;;
12842;SDS011;35724;49.324;-123.118;2023-09-18T15:22:48;5.40;;;2.35;;
12842;SDS011;35724;49.324;-123.118;2023-09-18T15:32:55;8.23;;;2.63;;
12842;SDS011;35724;49.324;-123.118;2023-09-18T15:43:04;7.75;;;2.55;;
12842;SDS011;35724;49.324;-123.118;2023-09-18T15:53:11;4.93;;;2.00;;
12842;SDS011;35724;49.324;-123.118;2023-09-18T16:03:20;7.07;;;2.50;;
12842;SDS011;35724;49.324;-123.118;2023-09-18T16:13:27;5.47;;;2.63;;
12842;SDS011;35724;49.324;-123.118;2023-09-18T16:23:37;4.57;;;2.40;;
12842;SDS011;35724;49.324;-123.118;2023-09-18T16:33:44;8.13;;;2.83;;
12842;SDS011;35724;49.324;-123.118;2023-09-18T16:43:54;7.45;;;2.67;;
12842;SDS011;35724;49.324;-123.118;2023-09-18T16:54:01;4.97;;;2.58;;
12842;SDS011;35724;49.324;-123.118;2023-09-18T17:04:10;6.07;;;2.38;;
12842;SDS011;35724;49.324;-123.118;2023-09-18T17:14:18;5.13;;;2.22;;
12842;SDS011;35724;49.324;-123.118;2023-09-18T17:24:27;4.68;;;2.10;;
12842;SDS011;35724;49.324;-123.118;2023-09-18T17:34:34;5.47;;;2.22;;
12842;SDS011;35724;49.324;-123.118;2023-09-18T17:44:43;4.38;;;2.25;;
12842;SDS011;35724;49.324;-123.118;2023-09-18T17:54:52;5.33;;;2.50;;
12842;SDS011;35724;49.324;-123.118;2023-09-18T18:05:04;5.75;;;2.33;;
12842;SDS011;35724;49.324;-123.118;2023-09-18T18:15:12;6.45;;;2.40;;
12842;SDS011;35724;49.324;-123.118;2023-09-18T18:25:22;9.60;;;3.28;;
12842;SDS011;35724;49.324;-123.118;2023-09-18T18:35:29;8.63;;;3.20;;
12842;SDS011;35724;49.324;-123.118;2023-09-18T18:45:38;11.32;;;3.42;;
12842;SDS011;35724;49.324;-123.118;2023-09-18T18:55:47;7.97;;;3.28;;
12842;SDS011;35724;49.324;-123.118;2023-09-18T19:05:58;8.25;;;3.00;;
12842;SDS011;35724;49.324;-123.118;2023-09-18T19:16:06;7.30;;;2.85;;
12842;SDS011;35724;49.324;-123.118;2023-09-18T19:26:17;8.23;;;3.03;;
12842;SDS011;35724;49.324;-123.118;2023-09-18T19:36:25;6.10;;;2.25;;
12842;SDS011;35724;49.324;-123.118;2023-09-18T19:46:33;3.83;;;1.92;;
12842;SDS011;35724;49.324;-123.118;2023-09-18T19:56:42;4.53;;;2.10;;
12842;SDS011;35724;49.324;-123.118;2023-09-18T20:06:51;3.58;;;1.95;;
12842;SDS011;35724;49.324;-123.118;2023-09-18T20:16:58;4.80;;;2.28;;
12842;SDS011;35724;49.324;-123.118;2023-09-18T20:27:08;4.18;;;2.28;;
12842;SDS011;35724;49.324;-123.118;2023-09-18T20:37:15;4.40;;;1.98;;
12842;SDS011;35724;49.324;-123.118;2023-09-18T20:47:24;4.40;;;2.20;;
12842;SDS011;35724;49.324;-123.118;2023-09-18T20:57:32;8.05;;;2.65;;
12842;SDS011;35724;49.324;-123.118;2023-09-18T21:07:41;5.68;;;2.70;;
12842;SDS011;35724;49.324;-123.118;2023-09-18T21:17:49;7.82;;;3.00;;
12842;SDS011;35724;49.324;-123.118;2023-09-18T21:27:58;6.85;;;2.90;;
12842;SDS011;35724;49.324;-123.118;2023-09-18T21:38:05;7.80;;;3.15;;
12842;SDS011;35724;49.324;-123.118;2023-09-18T21:48:14;9.38;;;2.80;;
12842;SDS011;35724;49.324;-123.118;2023-09-18T21:58:21;6.57;;;2.55;;
12842;SDS011;35724;49.324;-123.118;2023-09-18T22:08:30;8.45;;;2.83;;
12842;SDS011;35724;49.324;-123.118;2023-09-18T22:18:38;8.55;;;2.90;;
12842;SDS011;35724;49.324;-123.118;2023-09-18T22:28:48;6.75;;;2.70;;
12842;SDS011;35724;49.324;-123.118;2023-09-18T22:38:58;6.47;;;2.72;;
12842;SDS011;35724;49.324;-123.118;2023-09-18T22:59:58;7.35;;;2.78;;
12842;SDS011;35724;49.324;-123.118;2023-09-18T23:10:07;7.90;;;2.75;;
12842;SDS011;35724;49.324;-123.118;2023-09-18T23:20:17;4.57;;;2.20;;
12842;SDS011;35724;49.324;-123.118;2023-09-18T23:30:28;5.30;;;2.22;;
12842;SDS011;35724;49.324;-123.118;2023-09-18T23:40:37;4.05;;;2.00;;
12842;SDS011;35724;49.324;-123.118;2023-09-18T23:50:45;5.68;;;2.13;;
